Time;durP1;ratioP1;P1;durP2;ratioP2;P2;SDS_P1;SDS_P2;PMS_P1;PMS_P2;Temp;Humidity;BMP_temperature;BMP_pressure;BME280_temperature;BME280_humidity;BME280_pressure;Samples;Min_cycle;Max_cycle;Signal;HPM_P1;HPM_P2
2022/12/30 00:01:59;;;;;;;33.92;19.17;;;;;;;1.66;100.00;101532.63;4933367;29;20023;-75
2022/12/30 00:04:24;;;;;;;32.67;19.25;;;;;;;1.79;100.00;101535.50;4933379;29;20155;-75
2022/12/30 00:06:49;;;;;;;29.83;18.08;;;;;;;1.80;100.00;101532.22;4933387;29;20024;-74
2022/12/30 00:09:15;;;;;;;32.60;19.67;;;;;;;1.48;100.00;101544.59;4933422;29;20509;-75
2022/12/30 00:11:40;;;;;;;35.67;19.17;;;;;;;1.19;100.00;101543.72;4932778;29;20032;-73
2022/12/30 00:34:09;;;;;;;49.83;18.77;;;;;;;1.12;100.00;101559.16;4855438;29;20113;-74
2022/12/30 00:36:35;;;;;;;44.70;19.57;;;;;;;1.12;100.00;101560.06;4855606;29;20034;-76
2022/12/30 00:39:00;;;;;;;46.27;19.13;;;;;;;1.15;100.00;101543.28;4855972;29;20119;-75
2022/12/30 00:44:10;;;;;;;43.60;17.60;;;;;;;1.10;100.00;101553.94;4856133;29;20093;-75
2022/12/30 00:46:38;;;;;;;65.00;19.07;;;;;;;0.96;100.00;101551.78;4855807;29;20413;-75
2022/12/30 00:57:15;;;;;;;36.27;16.67;;;;;;;0.65;100.00;101556.53;4846166;29;20040;-75
2022/12/30 00:59:41;;;;;;;45.30;17.20;;;;;;;0.64;100.00;101552.22;4831874;29;20034;-76
2022/12/30 01:02:06;;;;;;;37.97;18.83;;;;;;;0.78;100.00;101550.94;4883879;29;20044;-73
2022/12/30 01:04:32;;;;;;;32.40;17.90;;;;;;;0.90;100.00;101549.56;4923495;29;20144;-74
2022/12/30 01:06:57;;;;;;;32.00;17.43;;;;;;;0.98;100.00;101559.56;4923834;29;20028;-76
2022/12/30 01:09:22;;;;;;;28.40;15.50;;;;;;;0.49;100.00;101500.84;4922392;29;20031;-75
2022/12/30 01:12:07;;;;;;;27.83;16.07;;;;;;;0.71;100.00;101538.41;4924189;29;20042;-77
2022/12/30 01:14:43;;;;;;;25.00;15.17;;;;;;;0.80;100.00;101552.00;4931015;29;20044;-75
2022/12/30 01:17:11;;;;;;;24.33;15.03;;;;;;;0.94;100.00;101548.19;4933279;29;20047;-74
2022/12/30 01:19:37;;;;;;;25.80;15.40;;;;;;;0.99;100.00;101544.44;4932893;29;20494;-75
2022/12/30 01:22:03;;;;;;;25.20;14.77;;;;;;;1.11;100.00;101549.78;4933176;29;20095;-76
2022/12/30 01:24:28;;;;;;;25.93;15.10;;;;;;;1.18;100.00;101547.00;4930929;29;20040;-75
2022/12/30 01:26:54;;;;;;;26.13;15.57;;;;;;;1.00;100.00;101528.44;4933236;29;20032;-75
2022/12/30 01:29:34;;;;;;;24.88;14.77;;;;;;;1.08;100.00;101540.19;4933225;29;20034;-75
2022/12/30 01:32:00;;;;;;;33.07;16.87;;;;;;;1.11;100.00;101535.38;4932827;29;20058;-74
2022/12/30 01:34:25;;;;;;;27.37;15.80;;;;;;;1.10;100.00;101520.88;4933032;29;20036;-75
2022/12/30 01:36:51;;;;;;;26.90;16.97;;;;;;;1.18;100.00;101520.69;4933159;29;20043;-76
2022/12/30 01:39:17;;;;;;;26.17;15.87;;;;;;;0.89;100.00;101470.59;4932966;29;20083;-73
2022/12/30 01:41:43;;;;;;;28.70;15.30;;;;;;;0.87;100.00;101511.13;4933060;29;20028;-75
2022/12/30 01:44:50;;;;;;;25.10;15.23;;;;;;;0.95;100.00;101534.75;4933089;29;20028;-75
2022/12/30 01:47:18;;;;;;;32.13;15.90;;;;;;;1.01;100.00;101530.22;4836876;29;20064;-75
2022/12/30 01:49:46;;;;;;;28.70;16.13;;;;;;;0.57;100.00;101515.13;4837086;29;20525;-76
2022/12/30 01:52:14;;;;;;;23.90;15.20;;;;;;;0.75;100.00;101533.78;4837218;29;20041;-75
2022/12/30 01:54:40;;;;;;;25.90;15.40;;;;;;;0.80;100.00;101536.75;4840255;29;20052;-75
2022/12/30 01:57:07;;;;;;;28.93;15.97;;;;;;;0.75;100.00;101528.69;4839940;29;20050;-75
2022/12/30 01:59:33;;;;;;;31.87;16.30;;;;;;;0.86;100.00;101534.78;4840139;29;20456;-75
2022/12/30 02:01:59;;;;;;;27.33;15.33;;;;;;;0.81;100.00;101536.00;4840203;29;20030;-75
2022/12/30 02:04:26;;;;;;;25.47;15.37;;;;;;;0.78;100.00;101535.69;4840078;29;20042;-75
2022/12/30 02:06:58;;;;;;;27.47;15.43;;;;;;;0.60;100.00;101517.09;4839943;29;20041;-75
2022/12/30 02:09:26;;;;;;;25.47;15.17;;;;;;;0.33;100.00;101480.72;4824614;29;20053;-75
2022/12/30 02:11:51;;;;;;;24.23;15.07;;;;;;;0.57;100.00;101534.59;4840014;29;20125;-76
2022/12/30 02:14:18;;;;;;;26.03;15.53;;;;;;;0.39;100.00;101537.19;4839892;29;20121;-75
2022/12/30 02:16:55;;;;;;;30.63;17.17;;;;;;;0.39;100.00;101521.94;4839881;29;20117;-77
2022/12/30 02:19:53;;;;;;;27.10;15.87;;;;;;;0.28;100.00;101517.50;4824350;29;20033;-77
2022/12/30 02:22:30;;;;;;;35.77;17.13;;;;;;;0.34;100.00;101527.31;4839806;29;20267;-77
2022/12/30 02:25:24;;;;;;;40.60;20.00;;;;;;;0.29;100.00;101531.97;4926126;29;20119;-77
2022/12/30 02:28:07;;;;;;;37.67;18.33;;;;;;;0.23;100.00;101524.66;4935446;29;20031;-77
2022/12/30 02:30:58;;;;;;;40.37;18.90;;;;;;;0.13;100.00;101524.53;4935320;29;20074;-77
2022/12/30 02:33:26;;;;;;;37.40;19.13;;;;;;;0.07;100.00;101519.75;4943788;29;20060;-76
2022/12/30 02:36:21;;;;;;;38.43;19.27;;;;;;;0.18;100.00;101528.41;4954407;29;20062;-77
2022/12/30 02:38:55;;;;;;;44.53;21.07;;;;;;;0.35;100.00;101524.94;4876352;29;20068;-77
2022/12/30 02:44:50;;;;;;;60.13;20.17;;;;;;;0.53;100.00;101519.81;4839321;29;20421;-75
2022/12/30 02:47:23;;;;;;;48.35;18.80;;;;;;;0.35;100.00;101466.53;4839276;29;20038;-77
2022/12/30 02:52:40;;;;;;;43.57;19.33;;;;;;;0.52;100.00;101525.63;4839306;29;20943;-76
2022/12/30 02:55:07;;;;;;;37.47;17.27;;;;;;;0.44;100.00;101515.63;4839282;29;20046;-76
2022/12/30 02:57:34;;;;;;;39.27;17.87;;;;;;;0.40;100.00;101513.56;4808511;29;20580;-76
2022/12/30 03:06:04;;;;;;;42.60;18.10;;;;;;;0.40;100.00;101522.81;4838896;29;20052;-76
2022/12/30 03:08:52;;;;;;;44.03;17.17;;;;;;;0.29;100.00;101537.06;4838869;29;20049;-76
2022/12/30 03:11:19;;;;;;;36.90;19.47;;;;;;;0.20;100.00;101526.00;4838835;29;20034;-76
2022/12/30 03:14:08;;;;;;;37.63;20.17;;;;;;;0.25;100.00;101528.25;4838818;29;20054;-76
2022/12/30 03:16:45;;;;;;;56.20;17.15;;;;;;;0.11;100.00;101491.38;4893228;29;20090;-76
2022/12/30 03:19:23;;;;;;;39.03;17.73;;;;;;;0.05;100.00;101492.44;4913301;29;20055;-74
2022/12/30 03:21:53;;;;;;;47.07;19.13;;;;;;;-0.09;100.00;101453.03;4930928;29;20046;-76
2022/12/30 03:27:09;;;;;;;103.83;19.73;;;;;;;0.17;100.00;101541.84;4934588;29;20046;-75
2022/12/30 03:29:46;;;;;;;74.45;18.80;;;;;;;-0.36;100.00;101483.53;4934514;29;20414;-76
2022/12/30 03:32:14;;;;;;;50.10;19.10;;;;;;;0.00;100.00;101530.09;4939797;29;20138;-75
2022/12/30 03:34:40;;;;;;;48.10;19.57;;;;;;;0.07;100.00;101536.66;4953687;28;20090;-76
2022/12/30 03:37:33;;;;;;;55.30;20.00;;;;;;;0.08;100.00;101516.47;4953848;28;20035;-76
2022/12/30 03:40:13;;;;;;;103.67;18.97;;;;;;;0.13;100.00;101529.63;4893953;29;20048;-77
2022/12/30 03:42:39;;;;;;;76.93;18.53;;;;;;;0.23;100.00;101539.91;4894004;29;20103;-77
2022/12/30 03:45:05;;;;;;;50.37;18.50;;;;;;;0.29;100.00;101537.94;4894038;29;20052;-77
2022/12/30 03:47:31;;;;;;;62.47;19.50;;;;;;;0.34;100.00;101535.84;4894289;29;20079;-77
2022/12/30 03:49:56;;;;;;;37.83;18.27;;;;;;;0.36;100.00;101536.88;4893626;29;20123;-76
2022/12/30 03:52:22;;;;;;;87.70;19.90;;;;;;;0.32;100.00;101547.50;4893879;29;20184;-77
2022/12/30 03:54:50;;;;;;;84.43;18.97;;;;;;;0.17;100.00;101533.34;4893847;29;20479;-76
2022/12/30 03:57:17;;;;;;;92.60;21.00;;;;;;;0.24;100.00;101553.50;4893814;29;20059;-76
2022/12/30 03:59:43;;;;;;;82.70;20.67;;;;;;;0.15;100.00;101546.78;4894024;29;20040;-77
2022/12/30 04:02:09;;;;;;;97.03;20.57;;;;;;;-0.13;100.00;101544.88;4893658;29;20166;-77
2022/12/30 04:04:34;;;;;;;69.53;19.67;;;;;;;-0.11;100.00;101549.34;4893563;29;20419;-77
2022/12/30 04:07:00;;;;;;;73.93;18.40;;;;;;;0.06;100.00;101560.25;4878051;29;20044;-77
2022/12/30 04:09:25;;;;;;;64.70;19.43;;;;;;;0.05;100.00;101559.34;4893508;29;20064;-77
2022/12/30 04:11:51;;;;;;;47.60;19.33;;;;;;;0.05;100.00;101555.91;4877769;29;20044;-77
2022/12/30 04:14:17;;;;;;;84.03;20.70;;;;;;;0.11;100.00;101554.88;4893810;29;20041;-77
2022/12/30 04:16:43;;;;;;;37.63;18.17;;;;;;;0.04;100.00;101554.09;4917964;29;20051;-77
2022/12/30 04:19:09;;;;;;;50.00;17.30;;;;;;;-0.02;100.00;101556.97;4952920;28;20027;-78
2022/12/30 04:21:34;;;;;;;53.63;19.70;;;;;;;-0.43;100.00;101531.00;4952783;28;20497;-78
2022/12/30 04:24:00;;;;;;;80.60;20.23;;;;;;;-0.24;100.00;101553.97;4953139;28;20046;-76
2022/12/30 04:26:25;;;;;;;74.53;20.27;;;;;;;-0.10;100.00;101555.31;4952798;28;20102;-77
2022/12/30 04:28:50;;;;;;;92.70;21.60;;;;;;;-0.18;100.00;101535.16;4911907;29;20048;-77
2022/12/30 04:31:16;;;;;;;91.47;21.53;;;;;;;-0.31;100.00;101513.50;4912074;29;20040;-77
2022/12/30 04:33:41;;;;;;;66.97;19.37;;;;;;;-0.17;100.00;101531.88;4911684;29;20060;-76
2022/12/30 04:36:07;;;;;;;102.43;21.27;;;;;;;-0.06;100.00;101543.06;4912064;29;20040;-77
2022/12/30 04:38:33;;;;;;;83.43;21.53;;;;;;;-0.19;100.00;101546.06;4912042;29;20463;-77
2022/12/30 04:40:59;;;;;;;66.27;20.37;;;;;;;-0.22;100.00;101549.97;4912166;29;20032;-79
2022/12/30 04:43:25;;;;;;;87.50;20.50;;;;;;;-0.31;100.00;101547.41;4912146;29;20036;-78
2022/12/30 04:45:50;;;;;;;75.63;21.50;;;;;;;-0.40;100.00;101555.03;4896034;29;20099;-77
2022/12/30 04:48:16;;;;;;;64.63;21.43;;;;;;;-0.29;100.00;101557.72;4911780;29;20043;-77
2022/12/30 04:50:43;;;;;;;47.33;21.53;;;;;;;-0.33;100.00;101554.84;4911941;29;20036;-77
2022/12/30 04:53:08;;;;;;;92.43;23.47;;;;;;;-0.31;100.00;101537.28;4912028;29;20116;-77
2022/12/30 04:55:34;;;;;;;50.03;20.97;;;;;;;-0.49;100.00;101498.28;4911790;29;20396;-77
2022/12/30 04:57:59;;;;;;;101.50;21.23;;;;;;;-0.19;100.00;101561.31;4912164;29;20046;-76
2022/12/30 05:00:25;;;;;;;91.50;21.63;;;;;;;-0.30;100.00;101559.34;4938613;29;20052;-77
2022/12/30 05:02:50;;;;;;;56.67;20.13;;;;;;;-0.78;100.00;101559.72;4933268;29;20032;-79
2022/12/30 05:05:16;;;;;;;78.73;21.47;;;;;;;-1.01;100.00;101559.94;4933087;29;20479;-79
2022/12/30 05:07:41;;;;;;;66.93;22.50;;;;;;;-1.03;100.00;101544.59;4916279;29;20114;-79
2022/12/30 05:10:07;;;;;;;82.60;22.77;;;;;;;-1.06;100.00;101556.97;4933490;29;20036;-80
2022/12/30 05:12:32;;;;;;;58.50;22.70;;;;;;;-0.91;100.00;101549.09;4930177;29;20048;-77
2022/12/30 05:14:58;;;;;;;71.63;22.03;;;;;;;-0.70;100.00;101555.41;4922482;29;20032;-81
2022/12/30 05:17:23;;;;;;;74.40;22.83;;;;;;;-0.61;100.00;101548.72;4924117;29;20039;-79
2022/12/30 05:19:49;;;;;;;137.00;27.03;;;;;;;-0.43;100.00;101558.91;4931314;29;20055;-78
2022/12/30 05:22:14;;;;;;;60.70;23.23;;;;;;;-0.66;100.00;101515.28;4932979;29;20087;-78
2022/12/30 05:27:24;;;;;;;52.37;23.67;;;;;;;-0.26;100.00;101558.00;4933586;29;20505;-78
2022/12/30 05:29:49;;;;;;;76.63;25.73;;;;;;;-0.37;100.00;101552.78;4936648;29;20035;-78
2022/12/30 05:32:14;;;;;;;55.20;22.77;;;;;;;-0.27;100.00;101564.72;4936809;29;20123;-78
2022/12/30 05:34:40;;;;;;;73.20;22.53;;;;;;;-0.33;100.00;101561.59;4936969;29;20038;-78
2022/12/30 05:37:05;;;;;;;58.97;23.43;;;;;;;-0.51;100.00;101530.25;4936649;29;20038;-77
2022/12/30 05:39:30;;;;;;;82.90;24.17;;;;;;;-0.35;100.00;101576.66;4936882;29;20034;-77
2022/12/30 05:41:56;;;;;;;122.20;24.97;;;;;;;-0.27;100.00;101579.06;4936497;29;20035;-78
2022/12/30 05:44:21;;;;;;;74.20;25.03;;;;;;;-0.24;100.00;101582.78;4936930;29;20451;-78
2022/12/30 05:46:47;;;;;;;114.00;27.00;;;;;;;-0.14;100.00;101581.16;4934593;29;20110;-77
2022/12/30 05:49:12;;;;;;;81.13;25.67;;;;;;;-0.51;100.00;101586.06;4931629;29;20035;-77
2022/12/30 05:51:38;;;;;;;109.40;26.37;;;;;;;-1.05;100.00;101545.19;4924369;29;20032;-78
2022/12/30 05:54:03;;;;;;;91.87;25.40;;;;;;;-1.00;100.00;101589.63;4917459;29;20028;-80
2022/12/30 05:56:29;;;;;;;132.03;28.80;;;;;;;-0.90;100.00;101597.41;4923583;29;20040;-77
2022/12/30 05:58:55;;;;;;;163.50;30.97;;;;;;;-1.13;100.00;101552.00;4936453;29;20028;-80
2022/12/30 06:01:21;;;;;;;130.80;31.77;;;;;;;-0.80;100.00;101611.91;4918562;29;20044;-80
2022/12/30 06:03:46;;;;;;;138.37;32.53;;;;;;;-0.71;100.00;101605.25;4917170;29;20035;-79
2022/12/30 06:06:11;;;;;;;133.60;33.60;;;;;;;-0.66;100.00;101598.09;4917082;29;20031;-78
2022/12/30 06:08:38;;;;;;;128.00;33.20;;;;;;;-0.48;100.00;101610.81;4909660;29;20032;-75
2022/12/30 06:11:04;;;;;;;182.13;35.50;;;;;;;-0.52;100.00;101618.13;4934525;29;20064;-77
2022/12/30 06:13:29;;;;;;;148.17;32.60;;;;;;;-0.67;100.00;101586.16;4934544;29;20042;-74
2022/12/30 06:15:55;;;;;;;150.70;34.13;;;;;;;-0.69;100.00;101562.28;4916901;29;20027;-74
2022/12/30 06:18:20;;;;;;;123.80;31.63;;;;;;;-0.36;100.00;101601.91;4935108;29;20099;-74
2022/12/30 06:20:47;;;;;;;116.57;32.77;;;;;;;-0.20;100.00;101602.66;4934779;29;20106;-75
2022/12/30 06:23:13;;;;;;;129.30;33.03;;;;;;;-0.11;100.00;101611.91;4934856;29;20047;-76
2022/12/30 06:25:39;;;;;;;150.13;33.80;;;;;;;-0.09;100.00;101615.50;4917200;29;20493;-76
2022/12/30 06:28:04;;;;;;;147.47;34.80;;;;;;;-0.34;100.00;101578.47;4917487;29;20027;-77
2022/12/30 06:30:30;;;;;;;119.33;33.50;;;;;;;-0.18;100.00;101618.91;4934219;29;20036;-76
2022/12/30 06:32:56;;;;;;;88.40;32.77;;;;;;;-0.07;100.00;101616.56;4934006;29;20051;-77
2022/12/30 06:35:22;;;;;;;151.43;36.60;;;;;;;0.05;100.00;101616.84;4934620;29;20036;-75
2022/12/30 06:37:50;;;;;;;145.53;37.30;;;;;;;0.03;100.00;101621.78;4915563;29;20106;-75
2022/12/30 06:40:15;;;;;;;171.10;39.43;;;;;;;-0.02;100.00;101607.75;4933233;29;20071;-75
2022/12/30 06:42:40;;;;;;;249.03;42.37;;;;;;;0.05;100.00;101615.22;4932632;29;20483;-76
2022/12/30 06:45:07;;;;;;;239.20;45.47;;;;;;;0.19;100.00;101613.09;4933988;29;20024;-76
2022/12/30 06:47:33;;;;;;;168.73;40.03;;;;;;;0.28;100.00;101625.03;4934305;29;20031;-76
2022/12/30 06:49:58;;;;;;;141.00;36.37;;;;;;;0.39;100.00;101625.22;4934340;29;20095;-75
2022/12/30 06:52:24;;;;;;;146.27;36.17;;;;;;;0.31;100.00;101601.59;4934224;29;20032;-75
2022/12/30 06:54:49;;;;;;;117.00;33.37;;;;;;;0.36;100.00;101622.34;4933781;29;20027;-76
2022/12/30 06:57:15;;;;;;;69.33;29.50;;;;;;;0.27;100.00;101620.72;4916847;29;20040;-81
2022/12/30 06:59:40;;;;;;;328.37;48.57;;;;;;;0.16;100.00;101598.47;4934814;29;20028;-77
2022/12/30 07:02:06;;;;;;;246.00;49.83;;;;;;;0.31;100.00;101615.19;4934338;29;20035;-76
2022/12/30 07:04:31;;;;;;;130.57;41.17;;;;;;;-0.10;100.00;101568.00;4934554;29;20098;-77
2022/12/30 07:06:57;;;;;;;126.77;32.53;;;;;;;0.18;100.00;101621.50;4934375;29;20490;-76
2022/12/30 07:09:23;;;;;;;144.40;33.00;;;;;;;0.26;100.00;101630.72;4934233;29;20032;-78
2022/12/30 07:11:48;;;;;;;167.07;33.67;;;;;;;0.27;100.00;101628.31;4934375;29;20401;-75
2022/12/30 07:14:14;;;;;;;123.47;31.07;;;;;;;0.36;100.00;101637.59;4932995;29;20036;-76
2022/12/30 07:16:40;;;;;;;159.47;34.80;;;;;;;0.34;100.00;101634.91;4933744;29;20114;-77
2022/12/30 07:19:06;;;;;;;162.33;33.43;;;;;;;0.29;100.00;101631.03;4933828;29;20398;-77
2022/12/30 07:21:32;;;;;;;110.40;29.60;;;;;;;0.18;100.00;101631.66;4916516;29;20051;-77
2022/12/30 07:23:58;;;;;;;84.17;27.77;;;;;;;-0.14;100.00;101582.03;4933444;29;20094;-76
2022/12/30 07:26:23;;;;;;;77.43;27.87;;;;;;;-0.01;100.00;101640.00;4933492;29;20032;-77
2022/12/30 07:28:51;;;;;;;50.90;25.03;;;;;;;-0.45;100.00;101568.00;4933232;29;20070;-76
2022/12/30 07:31:17;;;;;;;56.37;26.07;;;;;;;0.02;100.00;101641.94;4933426;29;20034;-74
2022/12/30 07:33:42;;;;;;;72.23;28.37;;;;;;;0.04;100.00;101632.81;4933296;29;20127;-75
2022/12/30 07:36:08;;;;;;;55.80;26.53;;;;;;;0.05;100.00;101627.91;4933130;29;20030;-76
2022/12/30 07:38:34;;;;;;;75.00;30.30;;;;;;;0.25;100.00;101639.09;4916031;29;20038;-76
2022/12/30 07:40:59;;;;;;;65.43;33.13;;;;;;;0.34;100.00;101649.25;4933304;29;20039;-74
2022/12/30 07:43:25;;;;;;;82.10;28.27;;;;;;;0.06;100.00;101609.34;4932988;29;20039;-76
2022/12/30 07:45:50;;;;;;;86.90;31.93;;;;;;;0.34;100.00;101656.88;4933109;29;20032;-76
2022/12/30 07:48:16;;;;;;;121.80;27.80;;;;;;;-0.06;100.00;101636.13;4933214;29;20036;-74
2022/12/30 07:50:41;;;;;;;53.87;28.33;;;;;;;-0.11;100.00;101614.44;4932258;29;20035;-74
2022/12/30 07:53:06;;;;;;;91.07;29.90;;;;;;;0.22;100.00;101661.66;4933076;29;20463;-75
2022/12/30 07:55:32;;;;;;;150.10;30.63;;;;;;;0.13;100.00;101648.97;4933365;29;20035;-74
2022/12/30 07:57:58;;;;;;;84.37;31.20;;;;;;;0.25;100.00;101665.41;4932295;29;20538;-76
2022/12/30 08:00:24;;;;;;;48.93;26.30;;;;;;;0.24;100.00;101667.81;4932116;29;20043;-75
2022/12/30 08:02:49;;;;;;;95.90;28.13;;;;;;;0.07;100.00;101661.94;4931438;29;20119;-75
2022/12/30 08:05:14;;;;;;;68.93;30.50;;;;;;;-0.10;100.00;101619.69;4932035;29;20028;-74
2022/12/30 08:07:40;;;;;;;82.00;31.93;;;;;;;0.28;100.00;101667.34;4932880;29;20035;-73
2022/12/30 08:10:06;;;;;;;78.90;31.03;;;;;;;0.37;100.00;101664.78;4932811;29;20020;-74
2022/12/30 08:12:34;;;;;;;51.87;26.13;;;;;;;0.35;100.00;101659.56;4932140;29;20458;-73
2022/12/30 08:15:00;;;;;;;59.73;27.33;;;;;;;0.40;100.00;101655.84;4932940;29;20082;-74
2022/12/30 08:17:27;;;;;;;81.13;27.00;;;;;;;0.43;100.00;101656.13;4932390;29;20454;-77
2022/12/30 08:19:53;;;;;;;49.60;25.03;;;;;;;0.25;100.00;101621.31;4930257;29;20175;-78
2022/12/30 08:22:18;;;;;;;77.07;27.73;;;;;;;0.53;100.00;101660.44;4933663;29;20037;-78
2022/12/30 08:24:43;;;;;;;72.77;31.10;;;;;;;0.57;100.00;101659.09;4931886;29;20411;-77
2022/12/30 08:27:09;;;;;;;65.10;31.97;;;;;;;0.68;100.00;101668.66;4933678;29;20043;-76
2022/12/30 08:29:34;;;;;;;68.50;30.87;;;;;;;0.68;100.00;101658.47;4933778;29;20019;-77
2022/12/30 08:32:00;;;;;;;81.60;44.00;;;;;;;0.71;100.00;101650.25;4942861;29;20526;-77
2022/12/30 08:34:25;;;;;;;65.30;32.83;;;;;;;0.75;100.00;101657.44;4952927;29;20035;-76
2022/12/30 08:36:51;;;;;;;47.90;29.07;;;;;;;0.66;100.00;101624.41;4952761;29;20050;-77
2022/12/30 08:39:16;;;;;;;58.33;26.27;;;;;;;0.78;100.00;101652.63;4952654;29;20106;-76
2022/12/30 08:41:45;;;;;;;47.33;26.80;;;;;;;0.85;100.00;101647.38;4952603;29;20111;-77
2022/12/30 08:44:10;;;;;;;48.07;25.90;;;;;;;1.01;100.00;101659.00;4952601;29;20031;-75
2022/12/30 08:46:37;;;;;;;46.97;25.90;;;;;;;1.01;100.00;101654.81;4952657;29;20039;-74
2022/12/30 08:49:03;;;;;;;53.27;24.60;;;;;;;1.08;100.00;101646.13;4952623;29;20039;-74
2022/12/30 08:51:29;;;;;;;51.70;26.27;;;;;;;1.10;100.00;101648.03;4902413;29;20035;-79
2022/12/30 08:53:55;;;;;;;37.13;23.83;;;;;;;1.23;100.00;101649.19;4953044;29;20039;-74
2022/12/30 08:56:29;;;;;;;39.43;22.50;;;;;;;1.26;100.00;101642.75;4935177;29;20045;-75
2022/12/30 08:58:56;;;;;;;36.23;21.27;;;;;;;1.35;100.00;101650.34;4952412;29;20481;-75
2022/12/30 09:01:27;;;;;;;39.13;23.07;;;;;;;1.40;100.00;101654.19;4953250;28;20027;-75
2022/12/30 09:03:53;;;;;;;55.73;24.63;;;;;;;1.35;100.00;101635.06;4956501;29;20027;-75
2022/12/30 09:06:21;;;;;;;32.13;20.80;;;;;;;1.48;100.00;101649.81;4956069;29;20483;-75
2022/12/30 09:08:47;;;;;;;30.33;19.07;;;;;;;1.41;100.00;101648.38;4939100;29;20058;-75
2022/12/30 09:11:22;;;;;;;33.63;21.20;;;;;;;1.50;100.00;101647.44;4906206;29;20418;-75
2022/12/30 09:13:47;;;;;;;41.55;21.83;;;;;;;1.55;100.00;101636.03;4956322;29;20023;-75
2022/12/30 09:16:18;;;;;;;36.83;20.83;;;;;;;1.66;100.00;101635.34;4956234;29;20023;-75
2022/12/30 09:18:44;;;;;;;34.23;21.03;;;;;;;1.70;100.00;101624.69;4955898;29;20517;-75
2022/12/30 09:21:10;;;;;;;35.78;23.13;;;;;;;1.72;100.00;101600.28;4906048;29;20061;-75
2022/12/30 09:23:36;;;;;;;36.40;22.20;;;;;;;1.93;100.00;101619.16;4941018;29;20479;-77
2022/12/30 09:26:04;;;;;;;57.65;28.48;;;;;;;2.13;100.00;101616.59;4936399;29;20047;-73
2022/12/30 09:28:30;;;;;;;50.57;26.27;;;;;;;2.19;100.00;101602.72;4936906;29;20035;-73
2022/12/30 09:30:55;;;;;;;49.88;28.90;;;;;;;2.16;100.00;101589.72;4936569;29;20043;-73
2022/12/30 09:33:21;;;;;;;43.65;26.90;;;;;;;2.49;100.00;101610.41;4936911;29;20052;-73
2022/12/30 09:35:46;;;;;;;40.78;26.45;;;;;;;2.58;100.00;101611.22;4936544;29;20471;-73
2022/12/30 09:38:11;;;;;;;36.55;23.05;;;;;;;2.47;100.00;101563.50;4936585;29;20383;-73
2022/12/30 09:40:55;;;;;;;43.90;26.35;;;;;;;2.79;100.00;101602.00;4936766;29;20538;-73
2022/12/30 09:43:34;;;;;;;49.20;27.90;;;;;;;2.96;100.00;101590.69;4936342;29;20509;-74
2022/12/30 09:46:09;;;;;;;42.55;26.10;;;;;;;3.15;100.00;101588.03;4933551;29;20218;-74
2022/12/30 09:49:11;;;;;;;45.85;28.42;;;;;;;3.35;100.00;101578.63;4936502;29;20043;-74
2022/12/30 09:51:44;;;;;;;41.78;25.88;;;;;;;3.54;100.00;101575.97;4840181;29;20030;-73
2022/12/30 09:54:17;;;;;;;41.63;26.77;;;;;;;3.50;100.00;101535.59;4840282;29;20045;-74
2022/12/30 09:56:46;;;;;;;42.50;26.95;;;;;;;3.83;100.00;101570.69;4839998;29;20550;-74
2022/12/30 09:59:19;;;;;;;37.13;25.48;;;;;;;3.93;100.00;101561.22;4840332;29;20049;-73
2022/12/30 10:01:59;;;;;;;40.28;26.55;;;;;;;4.13;100.00;101568.84;4840246;29;20057;-74
2022/12/30 10:04:34;;;;;;;42.45;27.83;;;;;;;4.25;100.00;101565.47;4840061;29;20042;-74
2022/12/30 10:07:14;;;;;;;44.13;29.52;;;;;;;4.50;100.00;101560.66;4839834;29;20049;-73
2022/12/30 10:09:53;;;;;;;38.58;26.58;;;;;;;4.74;100.00;101553.13;4839985;29;20081;-73
2022/12/30 10:12:27;;;;;;;36.47;25.65;;;;;;;4.90;100.00;101548.41;4839809;29;20134;-74
2022/12/30 10:15:28;;;;;;;36.85;25.40;;;;;;;5.07;100.00;101546.25;4839292;29;20042;-74
2022/12/30 10:18:11;;;;;;;35.70;23.30;;;;;;;5.22;100.00;101542.31;4803763;29;20518;-73
2022/12/30 10:20:43;;;;;;;33.30;24.02;;;;;;;5.45;100.00;101538.91;4803531;29;20050;-73
2022/12/30 10:23:40;;;;;;;34.38;23.60;;;;;;;5.66;100.00;101542.19;4803540;29;20392;-73
2022/12/30 10:26:15;;;;;;;34.63;24.08;;;;;;;5.92;100.00;101534.63;4803320;29;20050;-73
2022/12/30 10:28:48;;;;;;;29.80;21.70;;;;;;;5.91;100.00;101497.84;4837753;29;20045;-75
2022/12/30 10:31:20;;;;;;;32.03;22.63;;;;;;;6.29;100.00;101527.06;4857974;29;20034;-73
2022/12/30 10:33:49;;;;;;;28.35;21.10;;;;;;;6.37;100.00;101522.47;4858096;29;20053;-73
2022/12/30 10:36:27;;;;;;;29.45;20.45;;;;;;;6.57;100.00;101529.03;4857970;29;20045;-73
2022/12/30 10:39:15;;;;;;;26.00;19.77;;;;;;;6.70;100.00;101516.25;4857995;29;20037;-73
2022/12/30 10:41:59;;;;;;;36.83;22.30;;;;;;;6.83;100.00;101525.69;4844156;29;20817;-74
2022/12/30 10:44:31;;;;;;;31.67;21.67;;;;;;;6.92;100.00;101518.63;4831979;29;20541;-75
2022/12/30 10:47:15;;;;;;;30.63;20.48;;;;;;;7.05;100.00;101519.47;4839411;29;20065;-75
2022/12/30 10:50:08;;;;;;;29.52;21.30;;;;;;;7.25;100.00;101519.16;4837034;29;20042;-74
2022/12/30 10:52:34;;;;;;;29.92;21.90;;;;;;;7.28;100.00;101501.34;4834911;29;20038;-74
2022/12/30 10:54:59;;;;;;;27.70;20.77;;;;;;;7.36;100.00;101503.56;4888479;29;20096;-74
2022/12/30 10:57:34;;;;;;;29.90;20.95;;;;;;;7.35;100.00;101466.72;4909394;29;20063;-74
2022/12/30 11:00:00;;;;;;;26.20;20.33;;;;;;;7.61;100.00;101496.69;4934046;29;20447;-73
2022/12/30 11:02:36;;;;;;;30.63;20.17;;;;;;;7.51;100.00;101468.56;4934145;29;20032;-73
2022/12/30 11:05:04;;;;;;;28.25;21.38;;;;;;;7.78;100.00;101497.75;4929740;29;20039;-74
2022/12/30 11:07:29;;;;;;;29.40;21.13;;;;;;;7.82;100.00;101486.00;4933875;29;20039;-74
2022/12/30 11:09:55;;;;;;;27.77;20.13;;;;;;;7.87;100.00;101483.72;4933914;29;20770;-75
2022/12/30 11:15:16;;;;;;;27.08;20.17;;;;;;;7.85;100.00;101449.31;4934537;29;20046;-73
2022/12/30 11:17:50;;;;;;;25.75;19.73;;;;;;;8.11;100.00;101471.53;4929244;29;20086;-73
2022/12/30 11:20:15;;;;;;;28.33;20.10;;;;;;;8.18;100.00;101473.69;4934125;29;20487;-72
2022/12/30 11:22:53;;;;;;;29.15;19.52;;;;;;;8.22;100.00;101470.53;4934357;29;20028;-73
2022/12/30 11:25:33;;;;;;;25.77;19.80;;;;;;;8.26;100.00;101467.38;4934511;29;20036;-72
2022/12/30 11:28:16;;;;;;;;;;;;;;;8.36;100.00;101468.81;4901055;29;20071;-72
2022/12/30 11:31:04;;;;;;;26.92;19.30;;;;;;;8.27;100.00;101463.09;4934351;29;19919;-72
2022/12/30 11:33:39;;;;;;;24.60;19.27;;;;;;;8.30;100.00;101452.09;4934118;29;20080;-73
2022/12/30 11:36:28;;;;;;;25.25;18.05;;;;;;;8.47;100.00;101454.06;4933799;29;20412;-73
2022/12/30 11:39:15;;;;;;;25.60;18.30;;;;;;;8.55;100.00;101452.84;4934104;29;20066;-73
2022/12/30 11:41:58;;;;;;;30.70;20.92;;;;;;;8.64;100.00;101449.94;4819793;29;20133;-72
2022/12/30 11:44:34;;;;;;;30.25;20.48;;;;;;;8.47;100.00;101412.00;4819625;29;20046;-72
2022/12/30 11:47:10;;;;;;;26.75;17.67;;;;;;;8.77;100.00;101449.00;4804441;29;20050;-73
2022/12/30 11:49:45;;;;;;;26.90;19.60;;;;;;;8.75;100.00;101442.88;4819858;29;20038;-73
2022/12/30 11:52:26;;;;;;;23.52;16.35;;;;;;;8.82;100.00;101445.03;4819675;29;20145;-72
2022/12/30 11:55:02;;;;;;;23.13;17.95;;;;;;;8.89;100.00;101444.56;4819854;29;20077;-73
2022/12/30 11:57:36;;;;;;;25.00;18.20;;;;;;;8.92;100.00;101431.00;4819041;29;20046;-73
2022/12/30 12:00:06;;;;;;;24.67;17.42;;;;;;;8.91;100.00;101431.81;4819820;29;20057;-73
2022/12/30 12:02:34;;;;;;;22.90;17.52;;;;;;;8.96;100.00;101435.53;4819807;29;20073;-73
2022/12/30 12:05:00;;;;;;;25.50;17.67;;;;;;;9.05;100.00;101424.91;4819286;29;20038;-72
2022/12/30 12:07:41;;;;;;;26.75;18.77;;;;;;;9.09;100.00;101429.41;4819534;29;20058;-73
2022/12/30 12:10:20;;;;;;;23.98;18.02;;;;;;;9.16;100.00;101428.97;4819214;29;20060;-73